createdAt,value
2019-03-20T00:00:56.986Z,19.40
2019-03-20T00:03:22.997Z,21.20
2019-03-20T00:05:51.648Z,15.00
2019-03-20T00:08:17.262Z,13.50
2019-03-20T00:10:49.359Z,13.20
2019-03-20T00:13:15.367Z,21.80
2019-03-20T00:15:41.230Z,13.57
2019-03-20T00:18:06.904Z,17.53
2019-03-20T00:20:32.577Z,17.50
2019-03-20T00:22:59.099Z,10.60
2019-03-20T00:25:26.691Z,11.77
2019-03-20T00:27:54.723Z,18.00
2019-03-20T00:30:20.793Z,19.80
2019-03-20T00:32:46.422Z,10.07
2019-03-20T00:35:12.431Z,17.27
2019-03-20T00:37:37.964Z,11.93
2019-03-20T00:40:04.769Z,12.73
2019-03-20T00:42:30.532Z,22.60
2019-03-20T00:44:56.132Z,23.47
2019-03-20T00:47:21.772Z,12.50
2019-03-20T00:49:47.358Z,10.30
2019-03-20T00:52:12.950Z,14.93
2019-03-20T00:54:38.550Z,6.57
2019-03-20T00:57:04.148Z,11.63
2019-03-20T00:59:29.754Z,22.73
2019-03-20T01:01:55.612Z,16.90
2019-03-20T01:04:21.276Z,14.63
2019-03-20T01:06:46.902Z,12.43
2019-03-20T01:09:12.884Z,14.53
2019-03-20T01:11:39.336Z,12.17
2019-03-20T01:14:05.082Z,14.93
2019-03-20T01:16:30.801Z,15.80
2019-03-20T01:18:56.353Z,10.90
2019-03-20T01:21:22.030Z,11.60
2019-03-20T01:23:47.715Z,11.80
2019-03-20T01:26:13.272Z,20.00
2019-03-20T01:28:38.875Z,8.50
2019-03-20T01:31:05.804Z,14.27
2019-03-20T01:33:31.434Z,15.80
2019-03-20T01:35:57.019Z,9.90
2019-03-20T01:38:22.536Z,9.53
2019-03-20T01:40:48.892Z,12.77
2019-03-20T01:43:17.439Z,11.80
2019-03-20T01:45:45.951Z,17.53
2019-03-20T01:48:11.888Z,14.23
2019-03-20T01:50:37.469Z,15.40
2019-03-20T01:53:03.403Z,12.63
2019-03-20T01:55:29.074Z,9.23
2019-03-20T01:57:54.921Z,15.60
2019-03-20T02:00:21.470Z,17.27
2019-03-20T02:02:47.081Z,7.03
2019-03-20T02:05:13.434Z,11.87
2019-03-20T02:07:39.379Z,10.30
2019-03-20T02:10:07.201Z,10.50
2019-03-20T02:12:32.934Z,8.73
2019-03-20T02:14:58.212Z,14.27
2019-03-20T02:17:23.846Z,19.20
2019-03-20T02:19:49.731Z,14.07
2019-03-20T02:22:15.407Z,12.00
2019-03-20T02:24:40.976Z,10.17
2019-03-20T02:27:07.191Z,8.80
2019-03-20T02:29:32.776Z,6.53
2019-03-20T02:31:58.391Z,14.63
2019-03-20T02:34:23.993Z,9.70
2019-03-20T02:36:49.715Z,18.57
2019-03-20T02:39:15.577Z,10.40
2019-03-20T02:41:41.564Z,11.27
2019-03-20T02:44:07.559Z,9.30
2019-03-20T02:46:33.318Z,8.63
2019-03-20T02:48:59.112Z,9.20
2019-03-20T02:51:24.807Z,16.27
2019-03-20T02:53:50.397Z,13.27
2019-03-20T02:56:16.008Z,13.50
2019-03-20T02:58:41.565Z,13.87
2019-03-20T03:01:07.177Z,14.33
2019-03-20T03:03:32.840Z,8.53
2019-03-20T03:06:06.780Z,10.90
2019-03-20T03:08:25.368Z,11.00
2019-03-20T03:10:51.661Z,7.83
2019-03-20T03:13:17.274Z,10.53
2019-03-20T03:15:43.973Z,10.47
2019-03-20T03:18:09.544Z,11.60
2019-03-20T03:20:35.129Z,11.53
2019-03-20T03:23:01.043Z,10.30
2019-03-20T03:25:26.241Z,15.00
2019-03-20T03:27:51.452Z,10.23
2019-03-20T03:30:17.458Z,12.33
2019-03-20T03:32:42.822Z,17.33
2019-03-20T03:35:08.756Z,10.37
2019-03-20T03:37:34.086Z,12.23
2019-03-20T03:39:59.773Z,13.73
2019-03-20T03:42:25.356Z,14.03
2019-03-20T03:44:50.916Z,15.73
2019-03-20T03:47:16.480Z,15.57
2019-03-20T03:49:42.126Z,20.23
2019-03-20T03:52:07.869Z,19.20
2019-03-20T03:54:33.449Z,16.17
2019-03-20T03:56:59.157Z,20.17
2019-03-20T03:59:24.803Z,23.40
2019-03-20T04:01:50.646Z,13.27
2019-03-20T04:04:16.309Z,15.27
2019-03-20T04:06:42.169Z,21.83
2019-03-20T04:09:07.907Z,16.37
2019-03-20T04:11:33.666Z,16.93
2019-03-20T04:13:59.252Z,15.93
2019-03-20T04:16:24.858Z,15.27
2019-03-20T04:18:50.420Z,17.27
2019-03-20T04:21:16.064Z,18.43
2019-03-20T04:23:44.208Z,20.13
2019-03-20T04:26:10.049Z,25.80
2019-03-20T04:28:35.660Z,20.63
2019-03-20T04:31:01.237Z,26.83
2019-03-20T04:33:26.802Z,23.73
2019-03-20T04:35:52.539Z,24.50
2019-03-20T04:38:18.151Z,27.10
2019-03-20T04:40:43.705Z,22.50
2019-03-20T04:43:09.456Z,35.47
2019-03-20T04:45:35.208Z,22.20
2019-03-20T04:48:00.800Z,21.93
2019-03-20T04:50:26.391Z,29.13
2019-03-20T04:52:52.053Z,34.50
2019-03-20T04:55:17.684Z,26.33
2019-03-20T04:57:45.638Z,25.97
2019-03-20T05:00:12.638Z,22.50
2019-03-20T05:02:38.195Z,23.10
2019-03-20T05:05:04.166Z,24.23
2019-03-20T05:07:29.699Z,24.47
2019-03-20T05:09:56.038Z,26.57
2019-03-20T05:12:42.535Z,32.53
2019-03-20T05:15:11.586Z,34.10
2019-03-20T05:17:37.136Z,25.03
2019-03-20T05:20:04.324Z,28.33
2019-03-20T05:22:29.853Z,34.27
2019-03-20T05:24:55.417Z,28.47
2019-03-20T05:27:20.944Z,37.30
2019-03-20T05:29:46.538Z,29.97
2019-03-20T05:32:12.298Z,28.00
2019-03-20T05:34:42.910Z,32.70
2019-03-20T05:37:10.663Z,35.77
2019-03-20T05:39:36.113Z,32.67
2019-03-20T05:42:01.897Z,35.77
2019-03-20T05:44:27.495Z,32.70
2019-03-20T05:47:02.610Z,40.17
2019-03-20T05:49:32.129Z,35.47
2019-03-20T05:52:06.938Z,28.93
2019-03-20T05:54:32.582Z,29.93
2019-03-20T05:56:58.232Z,36.33
2019-03-20T05:59:24.055Z,33.80
2019-03-20T06:01:52.859Z,29.53
2019-03-20T06:04:18.629Z,32.33
2019-03-20T06:06:44.361Z,41.17
2019-03-20T06:09:09.996Z,35.23
2019-03-20T06:11:37.623Z,38.03
2019-03-20T06:14:03.608Z,34.90
2019-03-20T06:16:31.704Z,31.90
2019-03-20T06:18:57.337Z,31.80
2019-03-20T06:21:22.963Z,34.47
2019-03-20T06:23:48.618Z,35.90
2019-03-20T06:26:14.411Z,36.40
2019-03-20T06:28:40.257Z,36.83
2019-03-20T06:31:05.857Z,31.10
2019-03-20T06:33:31.129Z,31.47
2019-03-20T06:35:56.467Z,35.40
2019-03-20T06:38:21.775Z,41.00
2019-03-20T06:40:46.971Z,30.53
2019-03-20T06:43:13.206Z,35.23
2019-03-20T06:45:40.524Z,31.47
2019-03-20T06:48:06.212Z,33.57
2019-03-20T06:50:32.337Z,31.07
2019-03-20T06:53:00.435Z,31.47
2019-03-20T06:55:26.201Z,37.43
2019-03-20T06:57:51.592Z,29.77
2019-03-20T07:00:26.420Z,31.50
2019-03-20T07:02:52.041Z,30.10
2019-03-20T07:05:41.257Z,30.40
2019-03-20T07:08:06.852Z,29.37
2019-03-20T07:10:45.005Z,25.90
2019-03-20T07:13:10.338Z,29.07
2019-03-20T07:15:35.835Z,28.93
2019-03-20T07:18:01.350Z,35.57
2019-03-20T07:20:26.671Z,29.90
2019-03-20T07:22:52.052Z,31.80
2019-03-20T07:25:18.281Z,33.80
2019-03-20T07:27:43.527Z,35.30
2019-03-20T07:30:10.879Z,37.77
2019-03-20T07:32:36.103Z,38.60
2019-03-20T07:35:03.627Z,37.83
2019-03-20T07:37:28.999Z,41.60
2019-03-20T07:39:54.136Z,42.90
2019-03-20T07:42:29.647Z,43.03
2019-03-20T07:44:54.987Z,41.07
2019-03-20T07:47:20.162Z,35.97
2019-03-20T07:49:45.368Z,48.63
2019-03-20T07:52:10.588Z,42.77
2019-03-20T07:54:35.788Z,35.60
2019-03-20T07:57:01.060Z,40.53
2019-03-20T07:59:26.445Z,52.43
2019-03-20T08:01:52.822Z,42.50
2019-03-20T08:04:18.047Z,43.03
2019-03-20T08:06:43.357Z,45.53
2019-03-20T08:09:08.532Z,42.80
2019-03-20T08:11:35.835Z,39.17
2019-03-20T08:14:01.405Z,38.50
2019-03-20T08:16:27.030Z,42.57
2019-03-20T08:18:53.603Z,39.00
2019-03-20T08:21:19.181Z,43.73
2019-03-20T08:23:44.881Z,38.67
2019-03-20T08:26:10.510Z,41.60
2019-03-20T08:28:36.896Z,40.60
2019-03-20T08:31:02.796Z,43.83
2019-03-20T08:33:28.393Z,42.63
2019-03-20T08:35:54.402Z,40.70
2019-03-20T08:38:20.043Z,43.40
2019-03-20T08:40:45.572Z,39.83
2019-03-20T08:43:11.182Z,41.50
2019-03-20T08:45:36.875Z,41.23
2019-03-20T08:48:02.643Z,50.30
2019-03-20T08:50:28.179Z,37.37
2019-03-20T08:52:53.740Z,38.80
2019-03-20T08:55:19.684Z,37.80
2019-03-20T08:57:45.359Z,38.47
2019-03-20T09:00:13.519Z,47.67
2019-03-20T09:02:38.881Z,46.73
2019-03-20T09:05:08.027Z,36.07
2019-03-20T09:07:33.831Z,44.90
2019-03-20T09:09:59.463Z,46.23
2019-03-20T09:12:24.680Z,40.33
2019-03-20T09:14:49.965Z,34.33
2019-03-20T09:17:15.732Z,38.57
2019-03-20T09:19:41.317Z,36.60
2019-03-20T09:22:07.933Z,41.23
2019-03-20T09:24:33.492Z,38.67
2019-03-20T09:26:59.088Z,44.67
2019-03-20T09:29:35.668Z,37.83
2019-03-20T09:31:52.940Z,32.37
2019-03-20T09:34:18.467Z,36.60
2019-03-20T09:36:44.011Z,41.20
2019-03-20T09:39:09.640Z,34.83
2019-03-20T09:41:35.572Z,32.10
2019-03-20T09:44:01.223Z,36.10
2019-03-20T09:46:27.034Z,33.37
2019-03-20T09:48:52.624Z,44.00
2019-03-20T09:51:18.185Z,33.23
2019-03-20T09:53:44.796Z,31.70
2019-03-20T09:56:10.326Z,30.13
2019-03-20T09:58:35.897Z,34.97
2019-03-20T10:01:01.487Z,32.80
2019-03-20T10:03:27.665Z,35.33
2019-03-20T10:05:53.446Z,30.80
2019-03-20T10:08:19.077Z,31.23
2019-03-20T10:10:44.743Z,36.40
2019-03-20T10:13:11.385Z,33.90
2019-03-20T10:15:37.156Z,36.67
2019-03-20T10:18:02.947Z,30.50
2019-03-20T10:20:29.595Z,33.47
2019-03-20T10:22:55.663Z,42.77
2019-03-20T10:25:21.285Z,33.13
2019-03-20T10:27:46.943Z,39.27
2019-03-20T10:30:16.794Z,34.40
2019-03-20T10:32:42.061Z,33.03
2019-03-20T10:35:08.279Z,43.13
2019-03-20T10:37:33.662Z,35.13
2019-03-20T10:39:58.935Z,39.43
2019-03-20T10:42:24.130Z,43.77
2019-03-20T10:44:49.453Z,32.27
2019-03-20T10:47:14.676Z,42.57
2019-03-20T10:49:40.858Z,41.27
2019-03-20T10:52:06.101Z,34.17
2019-03-20T10:54:31.271Z,33.93
2019-03-20T10:56:56.627Z,34.50
2019-03-20T10:59:21.876Z,36.10
2019-03-20T11:01:47.774Z,40.47
2019-03-20T11:04:13.414Z,39.37
2019-03-20T11:06:38.970Z,42.63
2019-03-20T11:09:05.384Z,32.60
2019-03-20T11:11:31.090Z,33.97
2019-03-20T11:13:56.670Z,40.33
2019-03-20T11:16:22.200Z,37.27
2019-03-20T11:18:48.620Z,41.47
2019-03-20T11:21:14.361Z,37.77
2019-03-20T11:23:40.018Z,36.37
2019-03-20T11:26:05.559Z,37.27
2019-03-20T11:28:31.260Z,46.73
2019-03-20T11:30:57.055Z,38.97
2019-03-20T11:33:22.718Z,40.80
2019-03-20T11:35:48.686Z,42.03
2019-03-20T11:38:14.252Z,40.23
2019-03-20T11:40:40.289Z,39.23
2019-03-20T11:43:06.289Z,34.43
2019-03-20T11:45:31.952Z,43.07
2019-03-20T11:47:57.551Z,39.10
2019-03-20T11:50:33.229Z,34.57
2019-03-20T11:52:59.029Z,50.80
2019-03-20T11:55:24.710Z,39.90
2019-03-20T11:57:50.483Z,47.77
2019-03-20T12:00:16.894Z,41.50
2019-03-20T12:02:42.492Z,43.43
2019-03-20T12:05:08.173Z,41.13
2019-03-20T12:07:33.725Z,39.53
2019-03-20T12:09:59.250Z,40.70
2019-03-20T12:12:24.828Z,42.00
2019-03-20T12:14:50.383Z,41.20
2019-03-20T12:17:15.913Z,36.20
2019-03-20T12:19:45.126Z,45.13
2019-03-20T12:22:09.257Z,40.37
2019-03-20T12:24:34.955Z,43.80
2019-03-20T12:27:00.532Z,44.37
2019-03-20T12:29:26.388Z,39.50
2019-03-20T12:31:51.921Z,47.40
2019-03-20T12:34:17.523Z,53.53
2019-03-20T12:36:43.144Z,43.63
2019-03-20T12:39:08.711Z,45.50
2019-03-20T12:41:34.444Z,34.53
2019-03-20T12:44:00.308Z,47.30
2019-03-20T12:46:25.901Z,41.23
2019-03-20T12:48:51.686Z,43.43
2019-03-20T12:51:17.318Z,44.23
2019-03-20T12:53:42.856Z,39.20
2019-03-20T12:56:08.468Z,44.63
2019-03-20T12:58:34.056Z,46.03
2019-03-20T13:00:59.596Z,35.47
2019-03-20T13:03:25.120Z,45.83
2019-03-20T13:05:50.841Z,41.70
2019-03-20T13:08:16.399Z,42.23
2019-03-20T13:10:42.038Z,45.13
2019-03-20T13:13:07.629Z,42.70
2019-03-20T13:15:33.617Z,40.37
2019-03-20T13:18:01.393Z,45.30
2019-03-20T13:20:27.349Z,43.20
2019-03-20T13:23:03.484Z,44.20
2019-03-20T13:25:29.265Z,48.27
2019-03-20T13:27:54.832Z,45.87
2019-03-20T13:30:26.109Z,44.03
2019-03-20T13:32:51.827Z,46.53
2019-03-20T13:35:17.408Z,53.63
2019-03-20T13:37:43.143Z,46.77
2019-03-20T13:40:14.472Z,52.80
2019-03-20T13:42:36.863Z,46.63
2019-03-20T13:45:04.544Z,49.03
2019-03-20T13:47:31.127Z,44.40
2019-03-20T13:49:58.104Z,53.83
2019-03-20T13:52:27.198Z,47.33
2019-03-20T13:54:52.929Z,45.67
2019-03-20T13:57:18.561Z,45.40
2019-03-20T13:59:46.086Z,50.07
2019-03-20T14:02:12.629Z,45.63
2019-03-20T14:04:38.165Z,47.77
2019-03-20T14:07:03.987Z,50.30
2019-03-20T14:09:29.597Z,55.27
2019-03-20T14:11:55.414Z,47.90
2019-03-20T14:14:21.046Z,52.30
2019-03-20T14:16:46.926Z,46.63
2019-03-20T14:19:12.519Z,56.13
2019-03-20T14:21:38.512Z,47.57
2019-03-20T14:24:04.146Z,57.07
2019-03-20T14:26:29.838Z,51.00
2019-03-20T14:28:55.615Z,53.23
2019-03-20T14:31:21.190Z,44.97
2019-03-20T14:33:46.840Z,52.90
2019-03-20T14:36:12.679Z,51.00
2019-03-20T14:38:38.309Z,49.63
2019-03-20T14:41:05.042Z,58.27
2019-03-20T14:43:30.777Z,58.10
2019-03-20T14:46:00.466Z,51.73
2019-03-20T14:48:26.798Z,51.77
2019-03-20T14:50:53.291Z,55.53
2019-03-20T14:53:18.959Z,48.77
2019-03-20T14:55:44.559Z,54.33
2019-03-20T14:58:10.640Z,49.40
2019-03-20T15:00:36.396Z,55.00
2019-03-20T15:03:02.382Z,55.43
2019-03-20T15:05:28.462Z,50.80
2019-03-20T15:07:54.139Z,56.90
2019-03-20T15:10:21.670Z,51.63
2019-03-20T15:12:48.598Z,51.33
2019-03-20T15:15:16.033Z,50.23
2019-03-20T15:17:41.587Z,50.17
2019-03-20T15:20:09.032Z,55.03
2019-03-20T15:22:35.743Z,55.33
2019-03-20T15:25:01.278Z,57.53
2019-03-20T15:27:29.180Z,56.80
2019-03-20T15:29:54.801Z,50.60
2019-03-20T15:32:20.950Z,52.70
2019-03-20T15:34:46.511Z,53.63
2019-03-20T15:37:12.444Z,54.20
2019-03-20T15:39:38.173Z,60.90
2019-03-20T15:42:04.644Z,51.80
2019-03-20T15:44:30.456Z,58.97
2019-03-20T15:46:56.307Z,52.87
2019-03-20T15:49:22.632Z,52.27
2019-03-20T15:51:48.440Z,52.70
2019-03-20T15:54:14.976Z,55.57
2019-03-20T15:56:40.595Z,65.40
2019-03-20T15:59:06.143Z,51.47
2019-03-20T16:01:31.857Z,52.57
2019-03-20T16:03:57.982Z,55.57
2019-03-20T16:06:23.590Z,58.17
2019-03-20T16:08:49.624Z,49.57
2019-03-20T16:11:15.671Z,54.40
2019-03-20T16:13:41.683Z,66.63
2019-03-20T16:16:07.432Z,53.33
2019-03-20T16:18:33.236Z,57.93
2019-03-20T16:20:58.865Z,58.60
2019-03-20T16:23:24.468Z,55.80
2019-03-20T16:25:50.081Z,56.03
2019-03-20T16:28:15.682Z,58.43
2019-03-20T16:30:41.223Z,58.83
2019-03-20T16:33:07.008Z,56.73
2019-03-20T16:35:32.754Z,59.73
2019-03-20T16:37:58.452Z,58.87
2019-03-20T16:40:29.164Z,57.67
2019-03-20T16:42:54.837Z,55.93
2019-03-20T16:45:22.243Z,53.83
2019-03-20T16:47:47.904Z,61.47
2019-03-20T16:50:14.518Z,55.47
2019-03-20T16:52:40.504Z,57.37
2019-03-20T16:55:07.566Z,53.57
2019-03-20T16:57:33.207Z,75.23
2019-03-20T16:59:58.957Z,60.53
2019-03-20T17:02:25.790Z,54.97
2019-03-20T17:04:51.432Z,58.17
2019-03-20T17:07:17.061Z,56.70
2019-03-20T17:09:42.658Z,58.97
2019-03-20T17:12:10.309Z,65.40
2019-03-20T17:14:35.867Z,59.20
2019-03-20T17:17:02.151Z,63.60
2019-03-20T17:19:27.811Z,59.77
2019-03-20T17:21:53.415Z,62.27
2019-03-20T17:24:18.971Z,58.30
2019-03-20T17:26:44.551Z,58.27
2019-03-20T17:29:10.117Z,63.73
2019-03-20T17:31:35.763Z,77.60
2019-03-20T17:34:01.311Z,60.13
2019-03-20T17:36:26.991Z,66.87
2019-03-20T17:38:52.616Z,67.03
2019-03-20T17:41:18.184Z,67.23
2019-03-20T17:43:45.797Z,75.50
2019-03-20T17:46:11.540Z,72.70
2019-03-20T17:48:37.385Z,69.47
2019-03-20T17:51:03.038Z,70.53
2019-03-20T17:53:28.736Z,75.27
2019-03-20T17:55:54.352Z,71.07
2019-03-20T17:58:20.126Z,67.77
2019-03-20T18:00:47.735Z,67.33
2019-03-20T18:03:13.374Z,61.33
2019-03-20T18:05:38.972Z,73.37
2019-03-20T18:08:05.397Z,62.17
2019-03-20T18:10:33.152Z,65.13
2019-03-20T18:13:00.769Z,66.33
2019-03-20T18:15:26.428Z,57.40
2019-03-20T18:17:52.101Z,62.07
2019-03-20T18:20:20.703Z,63.23
2019-03-20T18:22:46.483Z,69.23
2019-03-20T18:25:12.517Z,66.60
2019-03-20T18:27:38.225Z,66.90
2019-03-20T18:30:05.961Z,73.40
2019-03-20T18:32:32.441Z,63.10
2019-03-20T18:34:58.198Z,68.93
2019-03-20T18:37:23.885Z,69.70
2019-03-20T18:39:49.587Z,71.33
2019-03-20T18:42:15.245Z,77.60
2019-03-20T18:44:40.963Z,70.90
2019-03-20T18:47:06.554Z,65.53
2019-03-20T18:49:32.318Z,70.33
2019-03-20T18:51:57.939Z,64.00
2019-03-20T18:54:24.537Z,70.53
2019-03-20T18:56:50.180Z,66.00
2019-03-20T18:59:16.112Z,75.50
2019-03-20T19:01:41.808Z,68.13
2019-03-20T19:04:07.421Z,68.67
2019-03-20T19:06:33.207Z,70.03
2019-03-20T19:08:58.809Z,66.47
2019-03-20T19:11:25.697Z,81.07
2019-03-20T19:13:53.396Z,77.63
2019-03-20T19:16:18.931Z,71.10
2019-03-20T19:18:44.461Z,76.63
2019-03-20T19:21:10.061Z,70.03
2019-03-20T19:23:36.570Z,65.67
2019-03-20T19:26:05.078Z,66.40
2019-03-20T19:28:31.016Z,70.03
2019-03-20T19:30:56.672Z,69.47
2019-03-20T19:33:22.287Z,82.10
2019-03-20T19:35:47.889Z,69.30
2019-03-20T19:38:13.612Z,77.63
2019-03-20T19:40:40.183Z,67.83
2019-03-20T19:43:06.089Z,72.27
2019-03-20T19:45:32.422Z,69.93
2019-03-20T19:48:02.928Z,72.50
2019-03-20T19:50:28.653Z,77.63
2019-03-20T19:52:54.213Z,75.10
2019-03-20T19:55:19.880Z,76.57
2019-03-20T19:57:45.538Z,92.23
2019-03-20T20:00:15.746Z,75.57
2019-03-20T20:02:41.317Z,66.40
2019-03-20T20:05:15.323Z,76.07
2019-03-20T20:07:34.936Z,82.63
2019-03-20T20:10:01.562Z,76.63
2019-03-20T20:12:31.393Z,83.13
2019-03-20T20:14:55.829Z,73.37
2019-03-20T20:17:21.496Z,70.50
2019-03-20T20:19:47.085Z,84.80
2019-03-20T20:22:12.826Z,84.87
2019-03-20T20:24:38.453Z,86.47
2019-03-20T20:27:06.178Z,88.70
2019-03-20T20:29:32.061Z,74.10
2019-03-20T20:31:58.035Z,79.43
2019-03-20T20:34:24.254Z,76.93
2019-03-20T20:36:50.117Z,70.13
2019-03-20T20:39:27.517Z,79.40
2019-03-20T20:41:53.509Z,77.00
2019-03-20T20:44:19.128Z,81.13
2019-03-20T20:46:54.239Z,83.67
2019-03-20T20:49:20.622Z,89.90
2019-03-20T20:51:46.371Z,87.60
2019-03-20T20:54:12.528Z,88.27
2019-03-20T20:56:41.122Z,87.37
2019-03-20T20:59:10.859Z,85.07
2019-03-20T21:01:37.063Z,87.57
2019-03-20T21:04:03.009Z,83.60
2019-03-20T21:06:29.663Z,104.17
2019-03-20T21:08:55.264Z,106.37
2019-03-20T21:11:22.439Z,96.87
2019-03-20T21:13:47.984Z,86.47
2019-03-20T21:16:13.601Z,84.07
2019-03-20T21:18:47.172Z,78.97
2019-03-20T21:21:12.816Z,81.80
2019-03-20T21:23:57.953Z,81.27
2019-03-20T21:26:37.012Z,80.07
2019-03-20T21:29:13.693Z,84.70
2019-03-20T21:31:45.005Z,81.53
2019-03-20T21:34:21.855Z,77.27
2019-03-20T21:36:52.398Z,81.90
2019-03-20T21:39:17.943Z,82.37
2019-03-20T21:41:57.468Z,78.13
2019-03-20T21:44:38.940Z,93.47
2019-03-20T21:47:35.692Z,75.57
2019-03-20T21:50:03.589Z,83.33
2019-03-20T21:52:31.371Z,92.10
2019-03-20T21:55:18.636Z,92.87
2019-03-20T21:57:52.082Z,93.50
2019-03-20T22:00:22.275Z,83.27
2019-03-20T22:02:50.176Z,84.27
2019-03-20T22:05:47.869Z,87.13
2019-03-20T22:08:16.687Z,81.90
2019-03-20T22:11:01.158Z,85.93
2019-03-20T22:13:28.991Z,96.43
2019-03-20T22:16:01.420Z,86.63
2019-03-20T22:18:35.910Z,82.13
2019-03-20T22:21:09.814Z,78.77
2019-03-20T22:23:40.687Z,86.70
2019-03-20T22:29:33.653Z,83.00
2019-03-20T22:32:04.388Z,95.30
2019-03-20T22:34:39.033Z,92.33
2019-03-20T22:37:04.648Z,84.80
2019-03-20T22:39:34.949Z,88.07
2019-03-20T22:42:02.581Z,86.87
2019-03-20T22:44:28.401Z,89.03
2019-03-20T22:52:50.102Z,87.67
2019-03-20T22:58:16.302Z,89.67
2019-03-20T23:00:47.465Z,96.97
2019-03-20T23:03:17.823Z,100.90
2019-03-20T23:05:46.609Z,101.00
2019-03-20T23:08:15.990Z,95.47
2019-03-20T23:10:44.735Z,102.27
2019-03-20T23:13:18.878Z,97.30
2019-03-20T23:15:40.797Z,103.57
2019-03-20T23:18:18.847Z,104.07
2019-03-20T23:20:47.837Z,99.30
2019-03-20T23:23:15.481Z,109.63
2019-03-20T23:25:43.860Z,103.83
2019-03-20T23:28:14.298Z,109.83
2019-03-20T23:30:40.753Z,112.93
2019-03-20T23:33:06.614Z,113.73
2019-03-20T23:35:32.392Z,112.70
2019-03-20T23:37:58.372Z,113.17
2019-03-20T23:40:24.118Z,116.13
2019-03-20T23:42:58.078Z,122.23
2019-03-20T23:51:12.878Z,115.13
2019-03-20T23:53:47.474Z,119.87
2019-03-20T23:56:13.960Z,125.87
2019-03-20T23:58:39.582Z,117.77
